sensor_id;sensor_type;location;lat;lon;timestamp;P1;durP1;ratioP1;P2;durP2;ratioP2
63342;SDS011;49465;57.664;39.686;2024-01-25T19:24:33;10.35;;;6.90;;
63342;SDS011;49465;57.664;39.686;2024-01-25T19:26:59;9.88;;;6.72;;
63342;SDS011;49465;57.664;39.686;2024-01-25T19:29:28;7.93;;;6.00;;
63342;SDS011;49465;57.664;39.686;2024-01-25T19:32:02;9.00;;;6.70;;
63342;SDS011;49465;57.664;39.686;2024-01-25T19:34:33;7.68;;;6.25;;
63342;SDS011;49465;57.664;39.686;2024-01-25T19:37:02;8.77;;;6.07;;
63342;SDS011;49465;57.664;39.686;2024-01-25T19:39:29;8.38;;;6.30;;
63342;SDS011;49465;57.664;39.686;2024-01-25T19:41:58;8.65;;;6.28;;
63342;SDS011;49465;57.664;39.686;2024-01-25T19:44:27;9.43;;;6.50;;
63342;SDS011;49465;57.664;39.686;2024-01-25T19:46:57;8.90;;;6.60;;
63342;SDS011;49465;57.664;39.686;2024-01-25T19:49:35;10.10;;;6.80;;
63342;SDS011;49465;57.664;39.686;2024-01-25T19:52:05;8.77;;;6.68;;
63342;SDS011;49465;57.664;39.686;2024-01-25T19:54:36;9.25;;;6.63;;
63342;SDS011;49465;57.664;39.686;2024-01-25T19:57:04;9.88;;;7.30;;
63342;SDS011;49465;57.664;39.686;2024-01-25T19:59:37;10.18;;;6.78;;
63342;SDS011;49465;57.664;39.686;2024-01-25T20:02:03;9.48;;;7.32;;
63342;SDS011;49465;57.664;39.686;2024-01-25T20:04:30;11.05;;;7.95;;
63342;SDS011;49465;57.664;39.686;2024-01-25T20:07:00;11.82;;;7.53;;
63342;SDS011;49465;57.664;39.686;2024-01-25T20:09:31;11.23;;;8.05;;
63342;SDS011;49465;57.664;39.686;2024-01-25T20:12:06;11.02;;;7.95;;
63342;SDS011;49465;57.664;39.686;2024-01-25T20:14:33;11.43;;;8.00;;
63342;SDS011;49465;57.664;39.686;2024-01-25T20:17:01;10.15;;;7.30;;
63342;SDS011;49465;57.664;39.686;2024-01-25T20:19:31;11.23;;;7.65;;
63342;SDS011;49465;57.664;39.686;2024-01-25T20:21:57;11.95;;;8.10;;
63342;SDS011;49465;57.664;39.686;2024-01-25T20:24:29;10.30;;;7.95;;
63342;SDS011;49465;57.664;39.686;2024-01-25T20:26:58;11.20;;;8.13;;
63342;SDS011;49465;57.664;39.686;2024-01-25T20:29:27;11.15;;;8.02;;
63342;SDS011;49465;57.664;39.686;2024-01-25T20:31:54;12.48;;;8.55;;
63342;SDS011;49465;57.664;39.686;2024-01-25T20:34:20;10.48;;;7.55;;
63342;SDS011;49465;57.664;39.686;2024-01-25T20:36:46;10.30;;;7.60;;
63342;SDS011;49465;57.664;39.686;2024-01-25T20:39:33;11.95;;;7.20;;
63342;SDS011;49465;57.664;39.686;2024-01-25T20:42:05;9.50;;;7.38;;
63342;SDS011;49465;57.664;39.686;2024-01-25T20:44:46;10.95;;;7.60;;
63342;SDS011;49465;57.664;39.686;2024-01-25T20:47:15;10.30;;;7.28;;
63342;SDS011;49465;57.664;39.686;2024-01-25T20:49:44;9.93;;;7.50;;
63342;SDS011;49465;57.664;39.686;2024-01-25T20:52:16;10.15;;;7.28;;
63342;SDS011;49465;57.664;39.686;2024-01-25T20:54:45;12.07;;;7.85;;
63342;SDS011;49465;57.664;39.686;2024-01-25T20:57:17;9.82;;;7.20;;
63342;SDS011;49465;57.664;39.686;2024-01-25T20:59:43;10.55;;;7.95;;
63342;SDS011;49465;57.664;39.686;2024-01-25T21:02:13;11.43;;;8.25;;
63342;SDS011;49465;57.664;39.686;2024-01-25T21:04:45;11.23;;;7.25;;
63342;SDS011;49465;57.664;39.686;2024-01-25T21:07:11;12.18;;;7.97;;
63342;SDS011;49465;57.664;39.686;2024-01-25T21:09:43;11.93;;;8.45;;
63342;SDS011;49465;57.664;39.686;2024-01-25T21:12:10;13.15;;;8.90;;
63342;SDS011;49465;57.664;39.686;2024-01-25T21:14:42;12.23;;;8.90;;
63342;SDS011;49465;57.664;39.686;2024-01-25T21:17:08;13.50;;;8.77;;
63342;SDS011;49465;57.664;39.686;2024-01-25T21:19:37;13.13;;;9.30;;
63342;SDS011;49465;57.664;39.686;2024-01-25T21:22:06;14.90;;;10.88;;
63342;SDS011;49465;57.664;39.686;2024-01-25T21:24:38;11.80;;;9.23;;
63342;SDS011;49465;57.664;39.686;2024-01-25T21:27:13;15.68;;;11.30;;
63342;SDS011;49465;57.664;39.686;2024-01-25T21:29:41;14.93;;;10.32;;
63342;SDS011;49465;57.664;39.686;2024-01-25T21:32:10;14.95;;;10.43;;
63342;SDS011;49465;57.664;39.686;2024-01-25T21:34:39;13.68;;;10.05;;
63342;SDS011;49465;57.664;39.686;2024-01-25T21:37:14;13.07;;;8.38;;
63342;SDS011;49465;57.664;39.686;2024-01-25T21:39:43;11.50;;;8.02;;
63342;SDS011;49465;57.664;39.686;2024-01-25T21:42:12;12.23;;;7.13;;
63342;SDS011;49465;57.664;39.686;2024-01-25T21:44:44;12.27;;;7.57;;
63342;SDS011;49465;57.664;39.686;2024-01-25T21:47:11;9.40;;;7.15;;
63342;SDS011;49465;57.664;39.686;2024-01-25T21:49:46;9.98;;;7.10;;
63342;SDS011;49465;57.664;39.686;2024-01-25T21:52:12;9.55;;;7.13;;
63342;SDS011;49465;57.664;39.686;2024-01-25T21:54:41;9.48;;;7.13;;
63342;SDS011;49465;57.664;39.686;2024-01-25T21:57:10;10.00;;;6.72;;
63342;SDS011;49465;57.664;39.686;2024-01-25T21:59:39;10.05;;;6.47;;
63342;SDS011;49465;57.664;39.686;2024-01-25T22:02:09;8.40;;;6.65;;
63342;SDS011;49465;57.664;39.686;2024-01-25T22:04:39;10.70;;;7.47;;
63342;SDS011;49465;57.664;39.686;2024-01-25T22:07:07;12.10;;;7.88;;
63342;SDS011;49465;57.664;39.686;2024-01-25T22:09:39;12.18;;;7.50;;
63342;SDS011;49465;57.664;39.686;2024-01-25T22:12:09;9.32;;;7.13;;
63342;SDS011;49465;57.664;39.686;2024-01-25T22:14:37;9.15;;;7.22;;
63342;SDS011;49465;57.664;39.686;2024-01-25T22:17:05;9.82;;;7.50;;
63342;SDS011;49465;57.664;39.686;2024-01-25T22:19:40;9.30;;;7.30;;
63342;SDS011;49465;57.664;39.686;2024-01-25T22:22:12;10.18;;;7.95;;
63342;SDS011;49465;57.664;39.686;2024-01-25T22:24:41;12.25;;;8.48;;
63342;SDS011;49465;57.664;39.686;2024-01-25T22:27:10;12.07;;;8.85;;
63342;SDS011;49465;57.664;39.686;2024-01-25T22:29:42;14.60;;;10.40;;
63342;SDS011;49465;57.664;39.686;2024-01-25T22:32:08;14.90;;;9.77;;
63342;SDS011;49465;57.664;39.686;2024-01-25T22:34:42;15.43;;;10.27;;
63342;SDS011;49465;57.664;39.686;2024-01-25T22:37:14;14.65;;;10.07;;
63342;SDS011;49465;57.664;39.686;2024-01-25T22:39:43;14.20;;;10.07;;
63342;SDS011;49465;57.664;39.686;2024-01-25T22:42:15;14.38;;;9.80;;
63342;SDS011;49465;57.664;39.686;2024-01-25T22:44:46;12.98;;;9.48;;
63342;SDS011;49465;57.664;39.686;2024-01-25T22:47:21;14.43;;;9.90;;
63342;SDS011;49465;57.664;39.686;2024-01-25T22:49:53;14.55;;;9.48;;
63342;SDS011;49465;57.664;39.686;2024-01-25T22:52:33;14.93;;;9.77;;
63342;SDS011;49465;57.664;39.686;2024-01-25T22:55:14;12.90;;;9.50;;
63342;SDS011;49465;57.664;39.686;2024-01-25T22:57:46;15.73;;;10.02;;
63342;SDS011;49465;57.664;39.686;2024-01-25T23:00:23;14.45;;;10.32;;
63342;SDS011;49465;57.664;39.686;2024-01-25T23:03:01;15.15;;;10.57;;
63342;SDS011;49465;57.664;39.686;2024-01-25T23:05:41;15.95;;;10.95;;
63342;SDS011;49465;57.664;39.686;2024-01-25T23:08:27;15.32;;;10.43;;
63342;SDS011;49465;57.664;39.686;2024-01-25T23:11:00;15.75;;;10.77;;
63342;SDS011;49465;57.664;39.686;2024-01-25T23:13:39;16.33;;;10.80;;
63342;SDS011;49465;57.664;39.686;2024-01-25T23:16:11;16.58;;;11.13;;
63342;SDS011;49465;57.664;39.686;2024-01-25T23:18:45;17.33;;;10.90;;
63342;SDS011;49465;57.664;39.686;2024-01-25T23:21:22;15.38;;;10.13;;
63342;SDS011;49465;57.664;39.686;2024-01-25T23:24:02;15.30;;;10.57;;
63342;SDS011;49465;57.664;39.686;2024-01-25T23:26:33;15.50;;;10.45;;
63342;SDS011;49465;57.664;39.686;2024-01-25T23:29:08;16.77;;;10.88;;
63342;SDS011;49465;57.664;39.686;2024-01-25T23:31:37;15.18;;;10.57;;
63342;SDS011;49465;57.664;39.686;2024-01-25T23:34:09;15.77;;;10.98;;
63342;SDS011;49465;57.664;39.686;2024-01-25T23:36:44;15.00;;;10.55;;
63342;SDS011;49465;57.664;39.686;2024-01-25T23:39:28;16.83;;;10.30;;
63342;SDS011;49465;57.664;39.686;2024-01-25T23:42:02;15.13;;;10.45;;
63342;SDS011;49465;57.664;39.686;2024-01-25T23:44:38;15.80;;;10.43;;
63342;SDS011;49465;57.664;39.686;2024-01-25T23:47:12;14.50;;;9.70;;
63342;SDS011;49465;57.664;39.686;2024-01-25T23:49:47;14.85;;;9.82;;
63342;SDS011;49465;57.664;39.686;2024-01-25T23:52:18;15.45;;;9.57;;
63342;SDS011;49465;57.664;39.686;2024-01-25T23:54:52;14.10;;;9.95;;
63342;SDS011;49465;57.664;39.686;2024-01-25T23:57:29;15.43;;;9.95;;
